This is the latest recevied weather packets stored in our database for station/object OK2CME-6. If no packets are shown the sender has not sent any weather packets the latest 10 day(s).
| Time | Temp. | Humidity | Pressure | Rain* | Wind** | Luminosity | Snow |
|---|---|---|---|---|---|---|---|
| 1788636442 | 16.11° C | 63% | 1025.5 hPa | 0 mm | - | 0 W/m² | - |
| 1788635242 | 16.67° C | 64% | 1025.2 hPa | 0 mm | - | 0 W/m² | - |
| 1788632842 | 17.22° C | 61% | 1025 hPa | 0 mm | - | 0 W/m² | - |
| 1788631642 | 17.78° C | 61% | 1024.2 hPa | 0 mm | - | 0 W/m² | - |
| 1788629242 | 18.89° C | 56% | 1024 hPa | 0 mm | - | 14 W/m² | - |
| 1788628042 | 18.89° C | 56% | 1023.7 hPa | 0 mm | - | 13 W/m² | - |
| 1788625642 | 19.44° C | 51% | 1023.4 hPa | 0 mm | - | 66 W/m² | - |
| 1788622042 | 20.56° C | 47% | 1023.1 hPa | 0 mm | - | 185 W/m² | - |
| 1788620842 | 21.11° C | 45% | 1023.2 hPa | 0 mm | - | 270 W/m² | - |
| 1788619642 | 21.67° C | 45% | 1023 hPa | 0 mm | - | 297 W/m² | - |
| 1788618442 | 21.11° C | 47% | 1023.2 hPa | 0 mm | - | 383 W/m² | - |
| 1788617242 | 20.56° C | 47% | 1023.4 hPa | 0 mm | - | 405 W/m² | - |
| 1788616042 | 20.56° C | 46% | 1023.3 hPa | 0 mm | - | 447 W/m² | - |
| 1788614842 | 20.56° C | 49% | 1023.4 hPa | 0 mm | - | 97 W/m² | - |
| 1788613642 | 20.56° C | 48% | 1023.3 hPa | 0 mm | - | 495 W/m² | - |
| 1788611242 | 21.11° C | 50% | 1023.5 hPa | 0 mm | - | 624 W/m² | - |
| 1788610042 | 20.56° C | 48% | 1023.3 hPa | 0 mm | - | 522 W/m² | - |
| 1788608842 | 19.44° C | 51% | 1023.6 hPa | 0 mm | - | 614 W/m² | - |
| 1788607642 | 18.89° C | 57% | 1023.3 hPa | 0 mm | - | 674 W/m² | - |
| 1788606442 | 17.78° C | 63% | 1023.3 hPa | 0 mm | - | 212 W/m² | - |
| 1788605242 | 18.33° C | 66% | 1023.4 hPa | 0 mm | - | 143 W/m² | - |
| 1788604042 | 17.78° C | 66% | 1023.5 hPa | 0 mm | - | 560 W/m² | - |
| 1788602842 | 17.78° C | 69% | 1023.7 hPa | 0 mm | - | 183 W/m² | - |
| 1788601642 | 17.22° C | 73% | 1023.9 hPa | 0 mm | - | 681 W/m² | - |
| 1788600442 | 17.22° C | 71% | 1023.9 hPa | 0 mm | - | 561 W/m² | - |
* Rain latest hour (hover to see other rain measurements)
** Current wind speed in m/s (hover to see current wind gust speed)